createdAt,value
2023-04-16T00:00:37.620Z,102134.41
2023-04-16T00:03:04.466Z,102135.31
2023-04-16T00:05:31.302Z,102140.69
2023-04-16T00:07:57.866Z,102141.53
2023-04-16T00:10:24.398Z,102141.56
2023-04-16T00:12:50.957Z,102139.78
2023-04-16T00:15:17.513Z,102149.59
2023-04-16T00:17:45.165Z,102148.72
2023-04-16T00:20:11.910Z,102149.56
2023-04-16T00:22:38.438Z,102150.47
2023-04-16T00:25:05.575Z,102154.00
2023-04-16T00:27:32.115Z,102157.63
2023-04-16T00:29:58.649Z,102154.88
2023-04-16T00:32:25.424Z,102163.81
2023-04-16T00:34:51.974Z,102158.47
2023-04-16T00:37:18.540Z,102155.78
2023-04-16T00:39:45.358Z,102155.78
2023-04-16T00:42:11.936Z,102152.22
2023-04-16T00:44:38.519Z,102154.91
2023-04-16T00:47:07.517Z,102154.03
2023-04-16T00:49:34.222Z,102159.34
2023-04-16T00:52:02.605Z,102158.50
2023-04-16T00:54:29.747Z,102168.28
2023-04-16T00:56:56.741Z,102173.66
2023-04-16T00:59:23.339Z,102161.19
2023-04-16T01:01:50.015Z,102166.53
2023-04-16T01:04:16.711Z,102173.66
2023-04-16T01:06:43.334Z,102173.63
2023-04-16T01:09:11.752Z,102171.84
2023-04-16T01:11:38.392Z,102179.00
2023-04-16T01:14:04.946Z,102177.19
2023-04-16T01:16:32.520Z,102176.31
2023-04-16T01:18:59.084Z,102170.03
2023-04-16T01:21:26.551Z,102173.63
2023-04-16T01:23:53.153Z,102166.44
2023-04-16T01:26:19.730Z,102170.97
2023-04-16T01:28:46.322Z,102170.00
2023-04-16T01:31:12.916Z,102179.88
2023-04-16T01:33:39.495Z,102176.28
2023-04-16T01:36:06.329Z,102175.41
2023-04-16T01:38:32.874Z,102177.16
2023-04-16T01:41:06.844Z,102179.88
2023-04-16T01:43:33.394Z,102176.28
2023-04-16T01:46:13.067Z,102181.63
2023-04-16T01:48:39.664Z,102181.56
2023-04-16T01:51:06.266Z,102186.00
2023-04-16T01:53:33.257Z,102180.66
2023-04-16T01:56:00.985Z,102180.66
2023-04-16T01:58:32.192Z,102185.97
2023-04-16T02:00:58.792Z,102191.31
2023-04-16T02:03:25.633Z,102186.00
2023-04-16T02:05:52.418Z,102181.56
2023-04-16T02:08:22.989Z,102187.81
2023-04-16T02:10:50.368Z,102191.34
2023-04-16T02:13:19.720Z,102185.13
2023-04-16T02:16:06.778Z,102184.25
2023-04-16T02:18:53.671Z,102189.66
2023-04-16T02:21:20.319Z,102182.44
2023-04-16T02:23:51.476Z,102179.78
2023-04-16T02:26:20.839Z,102185.13
2023-04-16T02:28:47.401Z,102177.09
2023-04-16T02:31:14.967Z,102179.78
2023-04-16T02:33:41.678Z,102178.91
2023-04-16T02:36:08.236Z,102173.50
2023-04-16T02:38:37.488Z,102180.66
2023-04-16T02:41:04.062Z,102182.44
2023-04-16T02:43:30.626Z,102184.22
2023-04-16T02:45:59.216Z,102171.69
2023-04-16T02:48:25.836Z,102173.50
2023-04-16T02:50:52.454Z,102175.31
2023-04-16T02:53:19.412Z,102178.84
2023-04-16T02:55:53.234Z,102173.50
2023-04-16T02:58:20.681Z,102182.38
2023-04-16T03:00:47.296Z,102184.19
2023-04-16T03:03:14.427Z,102184.16
2023-04-16T03:05:40.992Z,102186.00
2023-04-16T03:08:07.759Z,102176.16
2023-04-16T03:10:35.405Z,102179.69
2023-04-16T03:13:02.392Z,102173.47
2023-04-16T03:15:29.323Z,102181.53
2023-04-16T03:17:55.987Z,102185.97
2023-04-16T03:20:22.628Z,102177.94
2023-04-16T03:22:49.683Z,102181.47
2023-04-16T03:25:16.490Z,102180.59
2023-04-16T03:27:43.058Z,102184.16
2023-04-16T03:30:13.678Z,102182.34
2023-04-16T03:32:40.812Z,102185.94
2023-04-16T03:35:07.941Z,102186.81
2023-04-16T03:37:35.404Z,102185.03
2023-04-16T03:40:02.176Z,102190.38
2023-04-16T03:42:28.712Z,102191.25
2023-04-16T03:44:55.260Z,102194.81
2023-04-16T03:47:21.940Z,102193.00
2023-04-16T03:49:48.535Z,102201.84
2023-04-16T03:52:15.077Z,102199.22
2023-04-16T03:54:41.624Z,102201.00
2023-04-16T03:57:08.183Z,102196.50
2023-04-16T03:59:34.710Z,102193.00
2023-04-16T04:02:01.570Z,102194.75
2023-04-16T04:04:28.228Z,102197.41
2023-04-16T04:06:54.896Z,102204.50
2023-04-16T04:09:21.461Z,102207.19
2023-04-16T04:11:48.051Z,102213.41
2023-04-16T04:14:14.600Z,102206.28
2023-04-16T04:16:41.505Z,102203.59
2023-04-16T04:19:08.359Z,102202.75
2023-04-16T04:21:35.075Z,102196.50
2023-04-16T04:24:01.650Z,102214.28
2023-04-16T04:26:28.246Z,102213.41
2023-04-16T04:28:54.827Z,102209.75
2023-04-16T04:31:21.424Z,102214.22
2023-04-16T04:33:48.028Z,102219.56
2023-04-16T04:36:14.611Z,102210.63
2023-04-16T04:38:41.458Z,102231.09
2023-04-16T04:41:08.023Z,102227.66
2023-04-16T04:43:34.646Z,102226.72
2023-04-16T04:46:01.366Z,102231.19
2023-04-16T04:48:28.324Z,102230.34
2023-04-16T04:50:54.941Z,102235.66
2023-04-16T04:53:21.583Z,102234.78
2023-04-16T04:55:50.884Z,102241.03
2023-04-16T04:58:19.614Z,102235.63
2023-04-16T05:00:46.242Z,102239.19
2023-04-16T05:03:13.083Z,102248.06
2023-04-16T05:05:41.150Z,102246.25
2023-04-16T05:08:07.765Z,102244.53
2023-04-16T05:10:34.335Z,102247.19
2023-04-16T05:13:01.151Z,102251.66
2023-04-16T05:15:27.793Z,102250.75
2023-04-16T05:17:56.190Z,102257.94
2023-04-16T05:20:26.056Z,102248.06
2023-04-16T05:22:52.623Z,102264.09
2023-04-16T05:25:19.232Z,102258.75
2023-04-16T05:27:45.946Z,102258.78
2023-04-16T05:30:12.700Z,102261.38
2023-04-16T05:32:40.778Z,102270.38
2023-04-16T05:35:07.529Z,102266.66
2023-04-16T05:37:34.157Z,102276.47
2023-04-16T05:40:00.754Z,102274.72
2023-04-16T05:42:27.283Z,102287.22
2023-04-16T05:44:53.928Z,102276.47
2023-04-16T05:47:20.543Z,102283.63
2023-04-16T05:49:47.157Z,102287.22
2023-04-16T05:52:13.732Z,102285.44
2023-04-16T05:54:40.321Z,102283.56
2023-04-16T05:57:06.890Z,102283.56
2023-04-16T05:59:34.482Z,102288.97
2023-04-16T06:02:01.109Z,102292.53
2023-04-16T06:04:27.725Z,102288.91
2023-04-16T06:06:54.328Z,102297.91
2023-04-16T06:09:20.911Z,102301.50
2023-04-16T06:11:47.497Z,102300.56
2023-04-16T06:14:14.113Z,102302.34
2023-04-16T06:16:40.822Z,102304.22
2023-04-16T06:19:07.983Z,102302.44
2023-04-16T06:21:34.683Z,102302.41
2023-04-16T06:24:01.471Z,102314.00
2023-04-16T06:26:28.088Z,102304.09
2023-04-16T06:28:54.663Z,102322.88
2023-04-16T06:31:21.468Z,102320.25
2023-04-16T06:33:48.260Z,102316.72
2023-04-16T06:36:14.890Z,102322.84
2023-04-16T06:38:41.483Z,102324.66
2023-04-16T06:41:08.085Z,102324.69
2023-04-16T06:43:34.878Z,102318.44
2023-04-16T06:46:01.455Z,102322.00
2023-04-16T06:48:28.164Z,102330.09
2023-04-16T06:50:55.710Z,102330.03
2023-04-16T06:53:22.361Z,102330.97
2023-04-16T06:55:48.937Z,102337.19
2023-04-16T06:58:15.644Z,102334.50
2023-04-16T07:00:42.178Z,102337.19
2023-04-16T07:03:08.922Z,102342.59
2023-04-16T07:05:35.708Z,102346.94
2023-04-16T07:08:02.258Z,102342.53
2023-04-16T07:10:28.854Z,102342.53
2023-04-16T07:12:55.478Z,102344.28
2023-04-16T07:15:22.098Z,102338.03
2023-04-16T07:17:48.691Z,102349.63
2023-04-16T07:20:15.348Z,102357.69
2023-04-16T07:22:42.161Z,102350.63
2023-04-16T07:25:09.206Z,102341.81
2023-04-16T07:27:35.771Z,102345.38
2023-04-16T07:30:02.312Z,102346.28
2023-04-16T07:32:28.905Z,102349.97
2023-04-16T07:34:56.689Z,102351.81
2023-04-16T07:37:23.334Z,102358.94
2023-04-16T07:39:49.880Z,102354.53
2023-04-16T07:42:16.415Z,102356.38
2023-04-16T07:44:42.994Z,102357.31
2023-04-16T07:47:09.563Z,102350.22
2023-04-16T07:49:36.120Z,102351.16
2023-04-16T07:52:02.676Z,102358.31
2023-04-16T07:54:29.296Z,102353.91
2023-04-16T07:56:56.026Z,102355.81
2023-04-16T07:59:24.248Z,102357.50
2023-04-16T08:01:52.867Z,102368.28
2023-04-16T08:04:24.593Z,102372.78
2023-04-16T08:06:51.878Z,102365.63
2023-04-16T08:09:22.814Z,102367.50
2023-04-16T08:11:52.209Z,102366.50
2023-04-16T08:14:18.920Z,102373.72
2023-04-16T08:16:45.573Z,102379.06
2023-04-16T08:19:12.506Z,102397.00
2023-04-16T08:21:39.400Z,102384.44
2023-04-16T08:24:06.136Z,102385.28
2023-04-16T08:26:32.703Z,102377.28
2023-04-16T08:29:05.122Z,102377.22
2023-04-16T08:31:32.013Z,102380.88
2023-04-16T08:33:58.695Z,102384.41
2023-04-16T08:36:26.790Z,102383.56
2023-04-16T08:39:01.791Z,102391.53
2023-04-16T08:41:31.132Z,102380.81
2023-04-16T08:44:03.087Z,102392.50
2023-04-16T08:46:30.168Z,102387.16
2023-04-16T08:48:59.327Z,102387.16
2023-04-16T08:51:27.495Z,102397.06
2023-04-16T08:54:00.227Z,102398.88
2023-04-16T08:56:27.369Z,102394.50
2023-04-16T08:58:54.982Z,102392.75
2023-04-16T09:01:21.610Z,102394.56
2023-04-16T09:03:48.778Z,102399.09
2023-04-16T09:06:16.451Z,102391.09
2023-04-16T09:08:48.939Z,102400.97
2023-04-16T09:11:18.319Z,102411.75
2023-04-16T09:13:46.369Z,102409.94
2023-04-16T09:16:13.903Z,102417.16
2023-04-16T09:18:41.213Z,102418.97
2023-04-16T09:21:09.559Z,102417.22
2023-04-16T09:23:37.342Z,102420.81
2023-04-16T09:26:05.059Z,102412.81
2023-04-16T09:28:45.971Z,102427.13
2023-04-16T09:31:17.125Z,102425.28
2023-04-16T09:33:45.113Z,102423.50
2023-04-16T09:36:11.732Z,102424.38
2023-04-16T09:38:48.922Z,102438.72
2023-04-16T09:41:18.654Z,102436.94
2023-04-16T09:43:53.733Z,102440.53
2023-04-16T09:46:20.365Z,102442.38
2023-04-16T09:48:47.251Z,102444.22
2023-04-16T09:51:13.849Z,102450.47
2023-04-16T09:53:40.432Z,102456.75
2023-04-16T09:56:07.715Z,102452.31
2023-04-16T09:58:37.128Z,102450.50
2023-04-16T10:01:11.935Z,102453.19
2023-04-16T10:03:41.637Z,102463.06
2023-04-16T10:06:16.598Z,102462.16
2023-04-16T10:08:58.663Z,102459.47
2023-04-16T10:11:25.888Z,102458.56
2023-04-16T10:13:52.538Z,102462.16
2023-04-16T10:16:19.188Z,102462.19
2023-04-16T10:18:46.890Z,102467.53
2023-04-16T10:21:15.313Z,102462.16
2023-04-16T10:23:43.427Z,102459.47
2023-04-16T10:26:10.539Z,102466.66
2023-04-16T10:28:37.170Z,102458.59
2023-04-16T10:31:05.732Z,102462.16
2023-04-16T10:33:34.778Z,102462.16
2023-04-16T10:36:17.550Z,102468.44
2023-04-16T10:38:49.551Z,102467.56
2023-04-16T10:41:16.367Z,102471.13
2023-04-16T10:43:47.963Z,102465.75
2023-04-16T10:46:24.829Z,102467.56
2023-04-16T10:48:53.732Z,102459.53
2023-04-16T10:51:31.728Z,102462.25
2023-04-16T10:54:14.534Z,102466.72
2023-04-16T10:56:41.073Z,102462.19
2023-04-16T10:59:10.897Z,102458.69
2023-04-16T11:01:41.781Z,102464.09
2023-04-16T11:04:20.675Z,102467.59
2023-04-16T11:07:18.545Z,102460.47
2023-04-16T11:10:02.225Z,102466.72
2023-04-16T11:12:34.725Z,102454.22
2023-04-16T11:15:06.779Z,102462.28
2023-04-16T11:17:41.633Z,102460.53
2023-04-16T11:20:19.363Z,102467.66
2023-04-16T11:22:48.459Z,102466.81
2023-04-16T11:25:20.840Z,102465.00
2023-04-16T11:27:47.391Z,102473.03
2023-04-16T11:30:14.243Z,102476.63
2023-04-16T11:32:40.964Z,102466.81
2023-04-16T11:35:17.335Z,102469.47
2023-04-16T11:37:44.372Z,102475.72
2023-04-16T11:40:11.956Z,102479.34
2023-04-16T11:42:42.326Z,102477.53
2023-04-16T11:45:11.296Z,102471.28
2023-04-16T11:47:44.793Z,102480.22
2023-04-16T11:50:17.013Z,102478.44
2023-04-16T11:52:43.575Z,102485.63
2023-04-16T11:55:10.311Z,102482.94
2023-04-16T11:57:38.272Z,102482.03
2023-04-16T12:00:12.967Z,102482.06
2023-04-16T12:02:44.210Z,102487.38
2023-04-16T12:05:34.036Z,102485.66
2023-04-16T12:08:08.479Z,102492.81
2023-04-16T12:10:53.232Z,102483.88
2023-04-16T12:13:20.055Z,102475.84
2023-04-16T12:15:50.945Z,102481.22
2023-04-16T12:18:18.805Z,102478.63
2023-04-16T12:20:46.221Z,102487.53
2023-04-16T12:23:30.563Z,102482.19
2023-04-16T12:26:02.562Z,102491.16
2023-04-16T12:28:34.268Z,102489.38
2023-04-16T12:31:01.791Z,102485.78
2023-04-16T12:33:28.458Z,102488.50
2023-04-16T12:35:55.189Z,102487.63
2023-04-16T12:38:24.116Z,102486.78
2023-04-16T12:40:51.180Z,102479.59
2023-04-16T12:43:17.955Z,102485.03
2023-04-16T12:45:44.642Z,102482.38
2023-04-16T12:48:11.547Z,102491.31
2023-04-16T12:50:39.650Z,102493.13
2023-04-16T12:53:06.294Z,102493.16
2023-04-16T12:55:32.912Z,102489.56
2023-04-16T12:57:59.525Z,102490.44
2023-04-16T13:00:26.302Z,102481.53
2023-04-16T13:02:53.002Z,102486.00
2023-04-16T13:05:19.743Z,102485.13
2023-04-16T13:07:46.520Z,102473.50
2023-04-16T13:10:13.510Z,102486.09
2023-04-16T13:12:40.350Z,102480.72
2023-04-16T13:15:07.447Z,102485.19
2023-04-16T13:17:34.017Z,102481.63
2023-04-16T13:20:00.677Z,102486.09
2023-04-16T13:22:27.218Z,102487.88
2023-04-16T13:24:53.869Z,102486.09
2023-04-16T13:27:20.437Z,102491.47
2023-04-16T13:29:47.168Z,102488.78
2023-04-16T13:32:14.785Z,102486.09
2023-04-16T13:34:41.408Z,102480.72
2023-04-16T13:37:08.008Z,102488.75
2023-04-16T13:39:34.727Z,102495.03
2023-04-16T13:42:02.686Z,102495.91
2023-04-16T13:44:29.249Z,102493.22
2023-04-16T13:46:56.200Z,102491.47
2023-04-16T13:49:23.498Z,102503.09
2023-04-16T13:51:50.113Z,102494.16
2023-04-16T13:54:16.700Z,102495.06
2023-04-16T13:56:43.346Z,102495.06
2023-04-16T13:59:10.118Z,102496.84
2023-04-16T14:01:36.896Z,102503.13
2023-04-16T14:04:06.631Z,102501.34
2023-04-16T14:06:34.394Z,102496.81
2023-04-16T14:09:01.304Z,102492.38
2023-04-16T14:11:27.969Z,102496.84
2023-04-16T14:13:54.815Z,102494.16
2023-04-16T14:16:21.482Z,102495.03
2023-04-16T14:18:48.147Z,102490.56
2023-04-16T14:21:14.742Z,102495.03
2023-04-16T14:23:41.498Z,102497.75
2023-04-16T14:26:08.311Z,102497.75
2023-04-16T14:28:35.780Z,102498.63
2023-04-16T14:31:02.449Z,102496.84
2023-04-16T14:33:29.167Z,102499.50
2023-04-16T14:35:55.796Z,102500.44
2023-04-16T14:38:22.343Z,102498.63
2023-04-16T14:40:49.071Z,102497.75
2023-04-16T14:43:15.699Z,102494.16
2023-04-16T14:45:42.369Z,102501.34
2023-04-16T14:48:08.956Z,102502.22
2023-04-16T14:50:39.125Z,102500.44
2023-04-16T14:53:05.987Z,102498.63
2023-04-16T14:55:32.720Z,102498.66
2023-04-16T14:57:59.906Z,102499.53
2023-04-16T15:00:27.462Z,102509.38
2023-04-16T15:02:54.816Z,102509.38
2023-04-16T15:05:21.781Z,102507.56
2023-04-16T15:07:48.343Z,102518.31
2023-04-16T15:10:14.938Z,102510.25
2023-04-16T15:12:41.525Z,102513.81
2023-04-16T15:15:09.087Z,102511.16
2023-04-16T15:17:35.944Z,102511.13
2023-04-16T15:20:02.730Z,102512.88
2023-04-16T15:22:29.322Z,102511.09
2023-04-16T15:24:55.979Z,102510.22
2023-04-16T15:27:22.587Z,102502.16
2023-04-16T15:29:49.622Z,102516.47
2023-04-16T15:32:16.418Z,102520.03
2023-04-16T15:34:43.030Z,102515.56
2023-04-16T15:37:09.844Z,102514.66
2023-04-16T15:39:36.475Z,102521.81
2023-04-16T15:42:07.419Z,102520.06
2023-04-16T15:44:34.693Z,102528.13
2023-04-16T15:47:01.365Z,102520.06
2023-04-16T15:49:28.058Z,102525.47
2023-04-16T15:51:56.078Z,102525.47
2023-04-16T15:54:22.666Z,102524.53
2023-04-16T15:56:49.294Z,102535.34
2023-04-16T15:59:16.125Z,102532.63
2023-04-16T16:01:42.809Z,102526.38
2023-04-16T16:04:09.746Z,102523.69
2023-04-16T16:06:38.135Z,102530.81
2023-04-16T16:09:05.006Z,102528.16
2023-04-16T16:11:32.602Z,102525.47
2023-04-16T16:14:01.459Z,102526.38
2023-04-16T16:16:28.710Z,102527.28
2023-04-16T16:18:55.775Z,102522.78
2023-04-16T16:21:22.707Z,102523.69
2023-04-16T16:23:49.310Z,102528.22
2023-04-16T16:26:16.043Z,102533.59
2023-04-16T16:28:44.616Z,102527.31
2023-04-16T16:31:12.301Z,102523.69
2023-04-16T16:33:40.404Z,102532.63
2023-04-16T16:36:10.595Z,102532.63
2023-04-16T16:38:37.391Z,102534.44
2023-04-16T16:41:03.942Z,102541.59
2023-04-16T16:43:30.614Z,102535.28
2023-04-16T16:45:57.220Z,102536.19
2023-04-16T16:48:23.787Z,102540.66
2023-04-16T16:50:50.328Z,102533.50
2023-04-16T16:53:17.101Z,102539.75
2023-04-16T16:55:43.659Z,102539.78
2023-04-16T16:58:11.103Z,102539.78
2023-04-16T17:00:38.020Z,102542.47
2023-04-16T17:03:05.059Z,102548.72
2023-04-16T17:05:31.754Z,102547.84
2023-04-16T17:07:58.655Z,102552.28
2023-04-16T17:10:25.396Z,102545.13
2023-04-16T17:12:52.014Z,102547.81
2023-04-16T17:15:21.439Z,102555.84
2023-04-16T17:17:48.558Z,102547.78
2023-04-16T17:20:15.715Z,102554.03
2023-04-16T17:22:42.489Z,102553.16
2023-04-16T17:25:09.255Z,102559.38
2023-04-16T17:27:35.869Z,102559.41
2023-04-16T17:30:03.616Z,102570.16
2023-04-16T17:32:32.498Z,102561.22
2023-04-16T17:35:00.508Z,102565.66
2023-04-16T17:37:27.366Z,102568.28
2023-04-16T17:39:53.981Z,102570.13
2023-04-16T17:42:20.608Z,102568.34
2023-04-16T17:44:47.586Z,102573.69
2023-04-16T17:47:14.244Z,102575.47
2023-04-16T17:49:40.923Z,102573.63
2023-04-16T17:52:07.520Z,102573.63
2023-04-16T17:54:34.140Z,102579.00
2023-04-16T17:57:00.739Z,102579.88
2023-04-16T17:59:27.549Z,102574.50
2023-04-16T18:01:54.790Z,102570.97
2023-04-16T18:04:21.663Z,102575.38
2023-04-16T18:06:48.490Z,102586.13
2023-04-16T18:09:15.531Z,102584.28
2023-04-16T18:11:42.214Z,102587.94
2023-04-16T18:14:13.889Z,102593.31
2023-04-16T18:16:41.805Z,102592.34
2023-04-16T18:19:08.397Z,102597.78
2023-04-16T18:21:35.715Z,102597.69
2023-04-16T18:24:03.541Z,102593.22
2023-04-16T18:26:30.194Z,102595.88
2023-04-16T18:28:56.933Z,102596.75
2023-04-16T18:31:23.614Z,102595.88
2023-04-16T18:33:57.539Z,102598.56
2023-04-16T18:36:26.813Z,102601.19
2023-04-16T18:39:01.732Z,102612.84
2023-04-16T18:41:29.370Z,102611.97
2023-04-16T18:43:56.127Z,102606.56
2023-04-16T18:46:22.839Z,102605.69
2023-04-16T18:48:49.553Z,102620.00
2023-04-16T18:51:16.454Z,102619.13
2023-04-16T18:53:44.467Z,102618.28
2023-04-16T18:56:11.661Z,102611.06
2023-04-16T18:58:38.371Z,102620.00
2023-04-16T19:01:07.817Z,102623.59
2023-04-16T19:03:34.793Z,102630.72
2023-04-16T19:06:01.630Z,102633.41
2023-04-16T19:08:28.218Z,102633.38
2023-04-16T19:10:54.795Z,102636.03
2023-04-16T19:13:21.388Z,102633.38
2023-04-16T19:15:48.024Z,102639.66
2023-04-16T19:18:14.630Z,102645.03
2023-04-16T19:20:41.209Z,102643.22
2023-04-16T19:23:09.245Z,102643.13
2023-04-16T19:25:38.988Z,102652.00
2023-04-16T19:28:05.713Z,102648.34
2023-04-16T19:30:32.315Z,102647.47
2023-04-16T19:32:58.954Z,102650.13
2023-04-16T19:35:25.783Z,102655.34
2023-04-16T19:37:52.365Z,102655.34
2023-04-16T19:40:19.140Z,102666.03
2023-04-16T19:42:45.839Z,102666.06
2023-04-16T19:45:12.578Z,102663.34
2023-04-16T19:47:39.199Z,102667.81
2023-04-16T19:50:06.472Z,102673.19
2023-04-16T19:52:38.683Z,102683.91
2023-04-16T19:55:06.612Z,102675.81
2023-04-16T19:57:33.300Z,102672.25
2023-04-16T20:00:00.058Z,102677.56
2023-04-16T20:02:26.831Z,102671.31
2023-04-16T20:04:53.480Z,102674.88
2023-04-16T20:07:20.547Z,102673.13
2023-04-16T20:09:47.133Z,102674.94
2023-04-16T20:12:14.409Z,102677.56
2023-04-16T20:14:41.964Z,102674.81
2023-04-16T20:17:10.165Z,102676.63
2023-04-16T20:19:38.411Z,102682.84
2023-04-16T20:22:06.544Z,102680.13
2023-04-16T20:24:33.087Z,102682.78
2023-04-16T20:26:59.824Z,102683.78
2023-04-16T20:29:26.451Z,102686.41
2023-04-16T20:31:53.047Z,102686.47
2023-04-16T20:34:19.598Z,102689.09
2023-04-16T20:36:46.399Z,102678.44
2023-04-16T20:39:13.216Z,102678.41
2023-04-16T20:41:44.345Z,102675.00
2023-04-16T20:44:18.029Z,102666.06
2023-04-16T20:46:50.845Z,102666.06
2023-04-16T20:49:18.463Z,102663.34
2023-04-16T20:51:45.006Z,102663.22
2023-04-16T20:54:11.564Z,102655.09
2023-04-16T20:56:38.163Z,102657.03
2023-04-16T20:59:04.734Z,102658.72
2023-04-16T21:01:31.309Z,102658.63
2023-04-16T21:03:58.084Z,102656.88
2023-04-16T21:06:24.775Z,102646.31
2023-04-16T21:08:51.383Z,102653.38
2023-04-16T21:11:17.922Z,102649.78
2023-04-16T21:13:44.499Z,102656.94
2023-04-16T21:16:12.422Z,102651.63
2023-04-16T21:18:39.167Z,102656.91
2023-04-16T21:21:06.091Z,102657.00
2023-04-16T21:23:32.638Z,102668.59
2023-04-16T21:25:59.165Z,102664.91
2023-04-16T21:28:25.856Z,102662.44
2023-04-16T21:30:52.821Z,102667.63
2023-04-16T21:33:19.426Z,102664.94
2023-04-16T21:35:51.670Z,102669.47
2023-04-16T21:38:18.714Z,102671.25
2023-04-16T21:40:46.737Z,102668.41
2023-04-16T21:43:13.314Z,102660.38
2023-04-16T21:45:40.951Z,102671.19
2023-04-16T21:48:07.577Z,102667.66
2023-04-16T21:50:34.376Z,102677.44
2023-04-16T21:53:03.127Z,102668.47
2023-04-16T21:55:29.718Z,102670.16
2023-04-16T21:57:56.343Z,102668.41
2023-04-16T22:00:22.928Z,102663.81
2023-04-16T22:02:49.712Z,102661.34
2023-04-16T22:05:17.984Z,102656.81
2023-04-16T22:07:44.545Z,102663.09
2023-04-16T22:10:13.016Z,102660.59
2023-04-16T22:12:41.680Z,102658.72
2023-04-16T22:15:09.069Z,102659.53
2023-04-16T22:17:35.886Z,102661.25
2023-04-16T22:20:06.918Z,102666.63
2023-04-16T22:22:33.498Z,102666.47
2023-04-16T22:25:00.151Z,102669.34
2023-04-16T22:27:26.736Z,102675.53
2023-04-16T22:29:53.315Z,102671.03
2023-04-16T22:32:19.999Z,102668.34
2023-04-16T22:34:46.611Z,102667.47
2023-04-16T22:37:13.190Z,102669.22
2023-04-16T22:39:39.739Z,102681.63
2023-04-16T22:42:06.279Z,102670.09
2023-04-16T22:44:32.928Z,102678.13
2023-04-16T22:46:59.750Z,102666.53
2023-04-16T22:49:26.601Z,102672.75
2023-04-16T22:51:53.247Z,102679.88
2023-04-16T22:54:19.837Z,102669.22
2023-04-16T22:56:46.880Z,102675.38
2023-04-16T22:59:13.551Z,102665.53
2023-04-16T23:01:42.147Z,102670.91
2023-04-16T23:04:08.830Z,102671.91
2023-04-16T23:06:35.402Z,102664.84
2023-04-16T23:09:02.165Z,102661.06
2023-04-16T23:11:28.693Z,102665.59
2023-04-16T23:13:55.787Z,102666.47
2023-04-16T23:16:22.414Z,102669.00
2023-04-16T23:18:49.114Z,102660.19
2023-04-16T23:21:15.929Z,102661.09
2023-04-16T23:23:42.475Z,102667.13
2023-04-16T23:26:09.039Z,102667.19
2023-04-16T23:28:35.597Z,102664.44
2023-04-16T23:31:02.631Z,102682.25
2023-04-16T23:33:30.305Z,102665.47
2023-04-16T23:35:56.870Z,102676.09
2023-04-16T23:38:23.461Z,102674.31
2023-04-16T23:40:50.051Z,102673.50
2023-04-16T23:43:16.690Z,102670.81
2023-04-16T23:45:43.338Z,102671.63
2023-04-16T23:48:10.420Z,102680.66
2023-04-16T23:50:37.039Z,102683.34
2023-04-16T23:53:03.666Z,102675.09
2023-04-16T23:55:30.220Z,102680.38
2023-04-16T23:57:56.758Z,102681.41
